createdAt,value
2019-02-17T00:00:46.699Z,32.07
2019-02-17T00:03:13.905Z,29.90
2019-02-17T00:05:41.108Z,28.10
2019-02-17T00:08:08.319Z,25.43
2019-02-17T00:10:35.484Z,30.40
2019-02-17T00:13:02.670Z,33.20
2019-02-17T00:15:29.863Z,37.53
2019-02-17T00:17:57.074Z,44.93
2019-02-17T00:20:24.259Z,36.60
2019-02-17T00:22:51.506Z,42.30
2019-02-17T00:25:20.424Z,42.67
2019-02-17T00:27:48.182Z,32.50
2019-02-17T00:30:15.370Z,38.40
2019-02-17T00:32:42.569Z,40.50
2019-02-17T00:35:09.842Z,40.10
2019-02-17T00:37:37.009Z,40.63
2019-02-17T00:40:04.461Z,41.20
2019-02-17T00:42:31.646Z,32.03
2019-02-17T00:44:59.393Z,34.97
2019-02-17T00:47:26.558Z,33.83
2019-02-17T00:49:53.730Z,28.27
2019-02-17T00:52:20.918Z,26.37
2019-02-17T00:54:48.086Z,26.60
2019-02-17T00:57:15.261Z,24.20
2019-02-17T00:59:42.462Z,23.27
2019-02-17T01:02:09.647Z,27.83
2019-02-17T01:04:36.843Z,22.47
2019-02-17T01:07:04.034Z,28.17
2019-02-17T01:09:31.285Z,24.27
2019-02-17T01:11:58.951Z,25.20
2019-02-17T01:14:26.129Z,22.40
2019-02-17T01:16:53.841Z,23.13
2019-02-17T01:19:21.020Z,22.83
2019-02-17T01:21:48.216Z,24.30
2019-02-17T01:24:15.386Z,26.30
2019-02-17T01:26:42.572Z,20.00
2019-02-17T01:29:19.754Z,24.23
2019-02-17T01:31:38.667Z,23.63
2019-02-17T01:34:07.457Z,20.03
2019-02-17T01:36:34.659Z,19.30
2019-02-17T01:39:01.966Z,37.53
2019-02-17T01:41:29.160Z,19.83
2019-02-17T01:43:56.331Z,23.20
2019-02-17T01:46:23.502Z,18.30
2019-02-17T01:48:50.691Z,22.73
2019-02-17T01:51:17.853Z,18.77
2019-02-17T01:53:45.061Z,20.37
2019-02-17T01:56:12.283Z,23.27
2019-02-17T01:58:39.454Z,22.23
2019-02-17T02:01:06.622Z,18.83
2019-02-17T02:03:33.823Z,21.27
2019-02-17T02:06:00.987Z,21.73
2019-02-17T02:08:28.162Z,14.10
2019-02-17T02:10:55.346Z,16.40
2019-02-17T02:13:22.545Z,20.37
2019-02-17T02:15:49.723Z,15.83
2019-02-17T02:18:16.894Z,17.23
2019-02-17T02:20:44.070Z,20.07
2019-02-17T02:23:11.846Z,14.60
2019-02-17T02:25:39.045Z,15.27
2019-02-17T02:28:06.223Z,17.63
2019-02-17T02:30:33.839Z,16.50
2019-02-17T02:33:01.028Z,19.80
2019-02-17T02:35:28.275Z,20.50
2019-02-17T02:37:55.487Z,19.03
2019-02-17T02:40:22.724Z,19.13
2019-02-17T02:42:49.903Z,17.60
2019-02-17T02:45:17.074Z,14.63
2019-02-17T02:47:44.263Z,17.10
2019-02-17T02:50:11.422Z,13.50
2019-02-17T02:52:39.118Z,17.13
2019-02-17T02:55:06.953Z,14.57
2019-02-17T02:57:34.134Z,15.20
2019-02-17T03:00:01.324Z,18.30
2019-02-17T03:02:28.604Z,14.30
2019-02-17T03:04:55.852Z,16.53
2019-02-17T03:07:23.023Z,15.10
2019-02-17T03:09:50.187Z,15.90
2019-02-17T03:12:17.371Z,15.40
2019-02-17T03:14:45.169Z,16.40
2019-02-17T03:17:12.356Z,16.50
2019-02-17T03:19:39.533Z,15.37
2019-02-17T03:22:06.729Z,16.57
2019-02-17T03:24:34.408Z,15.27
2019-02-17T03:27:01.584Z,17.60
2019-02-17T03:29:28.770Z,16.23
2019-02-17T03:31:55.938Z,14.63
2019-02-17T03:34:23.141Z,15.13
2019-02-17T03:36:50.320Z,15.37
2019-02-17T03:39:17.577Z,15.77
2019-02-17T03:41:44.759Z,17.40
2019-02-17T03:44:12.411Z,15.17
2019-02-17T03:46:39.588Z,12.67
2019-02-17T03:49:06.759Z,13.80
2019-02-17T03:51:33.956Z,16.27
2019-02-17T03:54:01.131Z,15.67
2019-02-17T03:56:28.308Z,14.23
2019-02-17T03:58:55.484Z,15.63
2019-02-17T04:01:22.664Z,20.77
2019-02-17T04:03:49.842Z,15.57
2019-02-17T04:06:17.030Z,14.07
2019-02-17T04:08:44.201Z,18.23
2019-02-17T04:11:11.415Z,16.13
2019-02-17T04:13:39.190Z,15.23
2019-02-17T04:16:06.900Z,15.80
2019-02-17T04:18:34.069Z,15.30
2019-02-17T04:21:01.234Z,14.50
2019-02-17T04:23:31.610Z,15.43
2019-02-17T04:25:57.306Z,17.27
2019-02-17T04:28:24.507Z,15.70
2019-02-17T04:30:51.682Z,21.60
2019-02-17T04:33:18.862Z,18.20
2019-02-17T04:35:46.060Z,14.97
2019-02-17T04:38:13.298Z,15.40
2019-02-17T04:40:40.473Z,16.40
2019-02-17T04:43:07.646Z,13.57
2019-02-17T04:45:34.819Z,14.17
2019-02-17T04:48:02.000Z,16.40
2019-02-17T04:50:29.176Z,17.40
2019-02-17T04:52:56.352Z,14.47
2019-02-17T04:55:23.521Z,16.27
2019-02-17T04:57:50.714Z,18.43
2019-02-17T05:00:17.869Z,13.77
2019-02-17T05:02:45.055Z,15.27
2019-02-17T05:05:12.237Z,16.00
2019-02-17T05:07:39.440Z,15.60
2019-02-17T05:10:07.263Z,14.67
2019-02-17T05:12:34.436Z,17.50
2019-02-17T05:15:01.634Z,18.63
2019-02-17T05:17:28.896Z,20.10
2019-02-17T05:19:56.416Z,16.97
2019-02-17T05:22:23.598Z,17.80
2019-02-17T05:24:50.966Z,15.40
2019-02-17T05:27:18.153Z,16.33
2019-02-17T05:29:45.379Z,17.87
2019-02-17T05:32:12.563Z,13.93
2019-02-17T05:34:39.744Z,15.27
2019-02-17T05:37:06.929Z,16.10
2019-02-17T05:39:34.127Z,17.53
2019-02-17T05:42:01.322Z,18.97
2019-02-17T05:44:28.613Z,14.60
2019-02-17T05:46:55.812Z,18.70
2019-02-17T05:49:22.983Z,17.63
2019-02-17T05:51:50.178Z,22.33
2019-02-17T05:54:17.354Z,14.63
2019-02-17T05:56:44.545Z,19.57
2019-02-17T05:59:11.734Z,15.67
2019-02-17T06:01:39.389Z,18.07
2019-02-17T06:04:06.614Z,14.77
2019-02-17T06:06:33.793Z,13.67
2019-02-17T06:09:00.964Z,14.77
2019-02-17T06:11:28.146Z,18.23
2019-02-17T06:13:55.334Z,20.97
2019-02-17T06:16:22.528Z,16.90
2019-02-17T06:18:49.690Z,17.27
2019-02-17T06:21:17.369Z,19.23
2019-02-17T06:23:44.551Z,22.23
2019-02-17T06:26:11.803Z,23.03
2019-02-17T06:28:38.977Z,16.37
2019-02-17T06:31:13.973Z,15.53
2019-02-17T06:33:36.110Z,20.53
2019-02-17T06:36:03.721Z,18.80
2019-02-17T06:38:30.898Z,17.67
2019-02-17T06:40:58.084Z,15.10
2019-02-17T06:43:26.110Z,14.40
2019-02-17T06:45:53.311Z,16.07
2019-02-17T06:48:21.024Z,20.67
2019-02-17T06:50:48.210Z,15.33
2019-02-17T06:53:15.938Z,17.73
2019-02-17T06:55:56.470Z,20.83
2019-02-17T06:58:23.730Z,15.33
2019-02-17T07:00:51.105Z,17.63
2019-02-17T07:03:18.275Z,19.10
2019-02-17T07:06:02.025Z,21.73
2019-02-17T07:08:29.289Z,20.87
2019-02-17T07:10:56.543Z,23.87
2019-02-17T07:13:24.239Z,24.27
2019-02-17T07:15:51.419Z,20.17
2019-02-17T07:18:18.621Z,25.80
2019-02-17T07:20:45.794Z,18.77
2019-02-17T07:23:15.113Z,20.50
2019-02-17T07:25:42.536Z,20.43
2019-02-17T07:28:09.725Z,16.50
2019-02-17T07:30:37.057Z,15.83
2019-02-17T07:33:04.249Z,20.13
2019-02-17T07:35:31.446Z,19.67
2019-02-17T07:37:58.633Z,15.87
2019-02-17T07:40:26.249Z,17.07
2019-02-17T07:42:53.447Z,15.87
2019-02-17T07:45:20.629Z,16.50
2019-02-17T07:47:47.823Z,18.13
2019-02-17T07:50:14.999Z,18.40
2019-02-17T07:52:42.179Z,18.13
2019-02-17T07:55:10.628Z,16.80
2019-02-17T07:57:38.461Z,19.77
2019-02-17T08:00:07.774Z,22.37
2019-02-17T08:02:35.007Z,20.13
2019-02-17T08:05:02.206Z,24.00
2019-02-17T08:07:29.385Z,18.60
2019-02-17T08:09:56.576Z,18.37
2019-02-17T08:12:23.772Z,18.30
2019-02-17T08:14:51.482Z,18.07
2019-02-17T08:17:18.694Z,18.80
2019-02-17T08:19:46.401Z,17.73
2019-02-17T08:22:13.715Z,18.40
2019-02-17T08:24:41.294Z,17.90
2019-02-17T08:27:08.494Z,18.67
2019-02-17T08:29:35.684Z,16.13
2019-02-17T08:32:02.866Z,19.40
2019-02-17T08:34:30.057Z,19.93
2019-02-17T08:36:57.238Z,20.67
2019-02-17T08:39:24.413Z,19.60
2019-02-17T08:41:52.068Z,22.37
2019-02-17T08:44:19.256Z,18.33
2019-02-17T08:46:46.447Z,21.23
2019-02-17T08:49:13.622Z,15.17
2019-02-17T08:51:40.808Z,20.60
2019-02-17T08:54:07.994Z,19.27
2019-02-17T08:56:35.167Z,15.90
2019-02-17T08:59:02.376Z,17.73
2019-02-17T09:01:29.566Z,18.40
2019-02-17T09:03:56.739Z,18.07
2019-02-17T09:06:23.931Z,25.10
2019-02-17T09:08:51.112Z,25.17
2019-02-17T09:11:18.306Z,24.70
2019-02-17T09:13:45.495Z,21.70
2019-02-17T09:16:12.674Z,24.47
2019-02-17T09:18:39.852Z,21.53
2019-02-17T09:21:07.025Z,17.80
2019-02-17T09:23:34.221Z,19.20
2019-02-17T09:26:01.407Z,21.10
2019-02-17T09:28:28.586Z,18.50
2019-02-17T09:30:56.227Z,20.50
2019-02-17T09:33:23.443Z,21.50
2019-02-17T09:35:50.635Z,21.10
2019-02-17T09:38:17.879Z,21.67
2019-02-17T09:40:45.158Z,20.93
2019-02-17T09:43:12.532Z,20.17
2019-02-17T09:45:39.701Z,23.50
2019-02-17T09:48:07.468Z,22.07
2019-02-17T09:50:34.646Z,22.57
2019-02-17T09:53:01.844Z,24.80
2019-02-17T09:55:29.022Z,21.90
2019-02-17T09:57:56.201Z,26.30
2019-02-17T10:00:23.383Z,23.03
2019-02-17T10:02:50.554Z,26.33
2019-02-17T10:05:17.729Z,18.87
2019-02-17T10:07:46.050Z,25.67
2019-02-17T10:10:14.860Z,23.40
2019-02-17T10:12:42.047Z,21.30
2019-02-17T10:15:10.539Z,20.23
2019-02-17T10:17:37.844Z,19.03
2019-02-17T10:20:06.858Z,21.27
2019-02-17T10:22:34.034Z,26.63
2019-02-17T10:25:01.242Z,22.67
2019-02-17T10:27:28.492Z,23.00
2019-02-17T10:29:55.707Z,24.17
2019-02-17T10:32:22.951Z,23.77
2019-02-17T10:34:50.131Z,27.10
2019-02-17T10:37:17.335Z,21.10
2019-02-17T10:39:45.331Z,21.53
2019-02-17T10:42:12.532Z,27.63
2019-02-17T10:44:39.723Z,25.30
2019-02-17T10:47:06.907Z,24.77
2019-02-17T10:49:34.104Z,22.50
2019-02-17T10:52:01.278Z,24.37
2019-02-17T10:54:28.466Z,25.60
2019-02-17T10:56:55.688Z,24.10
2019-02-17T10:59:22.887Z,22.23
2019-02-17T11:01:50.123Z,22.63
2019-02-17T11:04:17.782Z,26.37
2019-02-17T11:06:44.983Z,24.03
2019-02-17T11:09:16.430Z,25.20
2019-02-17T11:11:43.632Z,27.50
2019-02-17T11:14:10.878Z,26.27
2019-02-17T11:16:38.784Z,23.60
2019-02-17T11:19:05.994Z,23.83
2019-02-17T11:21:33.183Z,25.27
2019-02-17T11:24:00.390Z,23.25
2019-02-17T11:26:27.575Z,27.85
2019-02-17T11:28:54.796Z,23.02
2019-02-17T11:31:22.014Z,25.32
2019-02-17T11:33:49.713Z,23.67
2019-02-17T11:36:16.886Z,21.35
2019-02-17T11:38:44.078Z,26.10
2019-02-17T11:41:12.663Z,27.33
2019-02-17T11:43:40.173Z,24.55
2019-02-17T11:46:07.410Z,24.02
2019-02-17T11:48:34.592Z,24.32
2019-02-17T11:51:01.771Z,28.02
2019-02-17T11:53:28.967Z,25.80
2019-02-17T11:55:56.149Z,25.55
2019-02-17T11:58:23.331Z,26.55
2019-02-17T12:00:50.518Z,24.18
2019-02-17T12:03:17.690Z,27.10
2019-02-17T12:05:44.872Z,24.92
2019-02-17T12:08:12.062Z,21.77
2019-02-17T12:10:39.263Z,27.22
2019-02-17T12:13:06.443Z,23.73
2019-02-17T12:15:34.207Z,26.05
2019-02-17T12:18:01.399Z,24.40
2019-02-17T12:20:42.223Z,24.18
2019-02-17T12:23:13.762Z,24.50
2019-02-17T12:25:45.275Z,23.12
2019-02-17T12:28:14.115Z,24.23
2019-02-17T12:30:43.068Z,25.30
2019-02-17T12:33:18.373Z,26.55
2019-02-17T12:35:39.706Z,26.85
2019-02-17T12:38:07.327Z,25.12
2019-02-17T12:40:34.509Z,25.75
2019-02-17T12:43:01.720Z,24.47
2019-02-17T12:45:28.890Z,28.70
2019-02-17T12:47:58.322Z,24.45
2019-02-17T12:50:25.440Z,25.40
2019-02-17T12:52:52.602Z,25.92
2019-02-17T12:55:19.799Z,29.70
2019-02-17T12:57:46.971Z,30.23
2019-02-17T13:00:16.612Z,26.68
2019-02-17T13:02:43.789Z,29.07
2019-02-17T13:05:10.969Z,25.17
2019-02-17T13:07:38.659Z,25.20
2019-02-17T13:10:07.130Z,28.27
2019-02-17T13:12:34.328Z,24.87
2019-02-17T13:15:01.514Z,26.23
2019-02-17T13:17:28.699Z,32.95
2019-02-17T13:19:55.905Z,27.95
2019-02-17T13:22:23.142Z,29.32
2019-02-17T13:24:50.317Z,30.43
2019-02-17T13:27:17.517Z,25.57
2019-02-17T13:29:44.684Z,31.75
2019-02-17T13:32:11.878Z,30.75
2019-02-17T13:34:39.046Z,28.92
2019-02-17T13:37:06.238Z,28.32
2019-02-17T13:39:33.413Z,27.70
2019-02-17T13:42:00.583Z,28.45
2019-02-17T13:44:27.843Z,27.42
2019-02-17T13:46:55.026Z,32.00
2019-02-17T13:49:22.208Z,35.78
2019-02-17T13:51:49.391Z,31.23
2019-02-17T13:54:17.051Z,29.27
2019-02-17T13:56:44.223Z,31.45
2019-02-17T13:59:11.432Z,40.17
2019-02-17T14:01:38.620Z,38.38
2019-02-17T14:04:05.865Z,33.30
2019-02-17T14:06:33.508Z,29.37
2019-02-17T14:09:00.687Z,31.25
2019-02-17T14:11:27.890Z,33.73
2019-02-17T14:13:55.066Z,30.95
2019-02-17T14:16:22.260Z,31.07
2019-02-17T14:18:49.990Z,32.23
2019-02-17T14:21:17.157Z,58.60
2019-02-17T14:23:44.895Z,66.27
2019-02-17T14:26:12.081Z,37.30
2019-02-17T14:28:39.792Z,38.73
2019-02-17T14:31:07.012Z,33.37
2019-02-17T14:33:34.249Z,33.67
2019-02-17T14:36:01.550Z,38.30
2019-02-17T14:38:28.753Z,37.00
2019-02-17T14:40:56.464Z,32.67
2019-02-17T14:43:23.656Z,35.60
2019-02-17T14:45:50.832Z,38.60
2019-02-17T14:48:17.999Z,35.27
2019-02-17T14:50:45.222Z,34.50
2019-02-17T14:53:12.405Z,31.10
2019-02-17T14:55:39.594Z,36.83
2019-02-17T14:58:06.784Z,38.00
2019-02-17T15:00:34.010Z,34.30
2019-02-17T15:03:01.223Z,31.90
2019-02-17T15:05:28.401Z,32.97
2019-02-17T15:07:55.602Z,29.97
2019-02-17T15:10:23.857Z,29.07
2019-02-17T15:12:51.353Z,31.10
2019-02-17T15:15:18.529Z,32.77
2019-02-17T15:17:45.698Z,35.37
2019-02-17T15:20:16.798Z,32.10
2019-02-17T15:22:43.966Z,31.27
2019-02-17T15:25:11.723Z,35.00
2019-02-17T15:27:38.924Z,38.03
2019-02-17T15:30:12.709Z,35.27
2019-02-17T15:32:39.883Z,31.83
2019-02-17T15:35:07.109Z,32.60
2019-02-17T15:37:34.289Z,37.00
2019-02-17T15:40:01.456Z,36.03
2019-02-17T15:42:28.656Z,34.53
2019-02-17T15:44:55.829Z,35.60
2019-02-17T15:47:23.010Z,34.97
2019-02-17T15:49:50.206Z,32.13
2019-02-17T15:52:18.001Z,32.73
2019-02-17T15:54:46.268Z,32.00
2019-02-17T15:57:13.465Z,32.00
2019-02-17T15:59:40.639Z,31.07
2019-02-17T16:02:07.826Z,35.77
2019-02-17T16:04:35.510Z,32.17
2019-02-17T16:07:02.705Z,31.20
2019-02-17T16:09:29.908Z,28.10
2019-02-17T16:11:57.084Z,35.13
2019-02-17T16:14:24.298Z,35.17
2019-02-17T16:16:51.973Z,29.40
2019-02-17T16:19:19.147Z,32.53
2019-02-17T16:21:46.502Z,37.30
2019-02-17T16:24:13.684Z,35.67
2019-02-17T16:26:40.876Z,33.27
2019-02-17T16:29:08.458Z,28.23
2019-02-17T16:31:35.623Z,31.33
2019-02-17T16:34:02.799Z,32.60
2019-02-17T16:36:30.000Z,38.67
2019-02-17T16:38:57.183Z,32.73
2019-02-17T16:41:24.898Z,28.10
2019-02-17T16:43:52.085Z,29.73
2019-02-17T16:46:19.812Z,27.67
2019-02-17T16:48:47.086Z,27.60
2019-02-17T16:51:14.731Z,28.13
2019-02-17T16:53:41.918Z,26.37
2019-02-17T16:56:09.142Z,27.90
2019-02-17T16:58:36.314Z,26.33
2019-02-17T17:01:04.363Z,26.73
2019-02-17T17:03:31.774Z,25.90
2019-02-17T17:05:59.492Z,23.90
2019-02-17T17:08:26.678Z,28.13
2019-02-17T17:10:54.369Z,24.90
2019-02-17T17:13:21.542Z,27.80
2019-02-17T17:15:48.738Z,30.47
2019-02-17T17:18:15.939Z,37.70
2019-02-17T17:20:43.571Z,25.47
2019-02-17T17:23:10.773Z,24.70
2019-02-17T17:25:37.954Z,24.10
2019-02-17T17:28:05.149Z,27.07
2019-02-17T17:30:32.330Z,20.13
2019-02-17T17:32:59.997Z,24.90
2019-02-17T17:35:27.183Z,24.43
2019-02-17T17:37:54.351Z,22.87
2019-02-17T17:40:21.555Z,23.07
2019-02-17T17:42:48.745Z,25.73
2019-02-17T17:45:17.572Z,25.00
2019-02-17T17:47:44.754Z,21.67
2019-02-17T17:50:12.712Z,21.57
2019-02-17T17:52:40.519Z,26.33
2019-02-17T17:55:08.568Z,28.30
2019-02-17T17:57:35.754Z,23.47
2019-02-17T18:00:04.115Z,22.17
2019-02-17T18:02:31.288Z,23.67
2019-02-17T18:05:08.436Z,19.20
2019-02-17T18:07:27.642Z,26.13
2019-02-17T18:09:55.047Z,26.13
2019-02-17T18:12:22.898Z,24.40
2019-02-17T18:14:50.548Z,22.70
2019-02-17T18:17:17.758Z,27.57
2019-02-17T18:19:44.932Z,26.27
2019-02-17T18:22:12.401Z,25.60
2019-02-17T18:24:39.587Z,25.80
2019-02-17T18:27:07.046Z,25.67
2019-02-17T18:29:34.231Z,21.67
2019-02-17T18:32:01.400Z,28.73
2019-02-17T18:34:28.934Z,23.03
2019-02-17T18:36:56.133Z,34.17
2019-02-17T18:39:23.622Z,30.40
2019-02-17T18:41:50.819Z,29.67
2019-02-17T18:44:18.003Z,32.10
2019-02-17T18:46:45.333Z,23.87
2019-02-17T18:49:12.881Z,26.40
2019-02-17T18:51:41.723Z,31.50
2019-02-17T18:54:08.973Z,27.77
2019-02-17T18:56:36.658Z,23.97
2019-02-17T18:59:03.844Z,30.47
2019-02-17T19:01:31.658Z,27.60
2019-02-17T19:03:58.827Z,26.30
2019-02-17T19:06:26.463Z,24.67
2019-02-17T19:08:53.741Z,25.37
2019-02-17T19:11:21.048Z,27.37
2019-02-17T19:13:48.358Z,45.00
2019-02-17T19:16:16.770Z,38.30
2019-02-17T19:18:43.994Z,28.73
2019-02-17T19:21:11.183Z,31.67
2019-02-17T19:23:38.435Z,26.77
2019-02-17T19:26:05.635Z,29.10
2019-02-17T19:28:32.836Z,32.67
2019-02-17T19:31:00.023Z,25.27
2019-02-17T19:33:27.883Z,28.70
2019-02-17T19:35:55.065Z,30.60
2019-02-17T19:38:22.288Z,29.47
2019-02-17T19:40:49.487Z,29.07
2019-02-17T19:43:16.790Z,30.67
2019-02-17T19:45:44.106Z,29.90
2019-02-17T19:48:11.395Z,28.17
2019-02-17T19:50:38.580Z,28.40
2019-02-17T19:53:06.330Z,30.73
2019-02-17T19:55:33.529Z,31.53
2019-02-17T19:58:01.784Z,28.00
2019-02-17T20:00:29.706Z,28.40
2019-02-17T20:03:16.421Z,26.27
2019-02-17T20:05:54.380Z,26.67
2019-02-17T20:08:21.576Z,24.10
2019-02-17T20:10:49.376Z,29.13
2019-02-17T20:13:17.091Z,20.33
2019-02-17T20:15:44.292Z,25.87
2019-02-17T20:18:11.485Z,25.70
2019-02-17T20:20:38.677Z,25.87
2019-02-17T20:23:07.071Z,27.70
2019-02-17T20:25:34.248Z,26.83
2019-02-17T20:28:01.689Z,25.40
2019-02-17T20:30:29.503Z,25.50
2019-02-17T20:32:56.757Z,26.27
2019-02-17T20:35:23.954Z,31.93
2019-02-17T20:37:51.148Z,25.63
2019-02-17T20:40:18.343Z,27.70
2019-02-17T20:42:45.525Z,29.27
2019-02-17T20:45:12.697Z,27.13
2019-02-17T20:47:39.920Z,28.80
2019-02-17T20:50:09.115Z,31.87
2019-02-17T20:52:36.322Z,27.37
2019-02-17T20:55:05.227Z,29.07
2019-02-17T20:57:32.429Z,29.67
2019-02-17T20:59:59.613Z,26.40
2019-02-17T21:02:26.795Z,31.37
2019-02-17T21:04:53.998Z,31.93
2019-02-17T21:07:21.200Z,32.43
2019-02-17T21:09:48.397Z,24.97
2019-02-17T21:12:15.830Z,28.87
2019-02-17T21:14:43.467Z,25.17
2019-02-17T21:17:10.670Z,25.53
2019-02-17T21:19:37.993Z,29.00
2019-02-17T21:22:05.274Z,29.67
2019-02-17T21:24:32.441Z,28.83
2019-02-17T21:26:59.669Z,28.20
2019-02-17T21:29:26.859Z,29.33
2019-02-17T21:31:54.031Z,28.80
2019-02-17T21:34:21.225Z,29.17
2019-02-17T21:36:48.401Z,32.17
2019-02-17T21:39:15.586Z,28.60
2019-02-17T21:41:42.765Z,28.97
2019-02-17T21:44:09.941Z,28.10
2019-02-17T21:46:37.127Z,26.47
2019-02-17T21:49:04.318Z,26.10
2019-02-17T21:51:32.048Z,28.13
2019-02-17T21:53:59.230Z,34.17
2019-02-17T21:56:26.417Z,27.60
2019-02-17T21:58:53.663Z,34.97
2019-02-17T22:01:20.855Z,24.90
2019-02-17T22:03:48.505Z,26.43
2019-02-17T22:06:15.678Z,29.60
2019-02-17T22:08:42.902Z,27.17
2019-02-17T22:11:10.074Z,27.30
2019-02-17T22:13:37.256Z,28.10
2019-02-17T22:16:04.442Z,31.23
2019-02-17T22:18:31.657Z,31.40
2019-02-17T22:20:59.260Z,28.27
2019-02-17T22:23:26.455Z,36.63
2019-02-17T22:25:53.741Z,26.87
2019-02-17T22:28:20.978Z,36.83
2019-02-17T22:30:48.173Z,32.67
2019-02-17T22:33:15.372Z,28.53
2019-02-17T22:35:42.969Z,29.63
2019-02-17T22:38:10.180Z,28.67
2019-02-17T22:40:37.359Z,27.67
2019-02-17T22:43:04.552Z,29.03
2019-02-17T22:45:31.717Z,25.47
2019-02-17T22:47:58.923Z,29.47
2019-02-17T22:50:26.095Z,30.40
2019-02-17T22:52:53.283Z,45.10
2019-02-17T22:55:21.016Z,28.07
2019-02-17T22:57:48.194Z,31.10
2019-02-17T23:00:30.274Z,25.97
2019-02-17T23:02:57.709Z,26.33
2019-02-17T23:05:24.899Z,28.77
2019-02-17T23:07:52.078Z,28.50
2019-02-17T23:10:19.843Z,33.17
2019-02-17T23:12:47.019Z,28.47
2019-02-17T23:15:14.795Z,25.20
2019-02-17T23:17:41.970Z,28.40
2019-02-17T23:20:09.138Z,27.03
2019-02-17T23:22:36.332Z,30.90
2019-02-17T23:25:04.794Z,30.03
2019-02-17T23:27:31.962Z,31.50
2019-02-17T23:29:59.174Z,29.80
2019-02-17T23:32:26.787Z,27.27
2019-02-17T23:34:54.434Z,28.17
2019-02-17T23:37:21.629Z,30.93
2019-02-17T23:39:48.900Z,26.20
2019-02-17T23:42:16.611Z,35.63
2019-02-17T23:44:43.794Z,29.90
2019-02-17T23:47:10.970Z,31.03
2019-02-17T23:49:38.163Z,28.57
2019-02-17T23:52:05.806Z,25.53
2019-02-17T23:54:33.066Z,26.37
2019-02-17T23:57:00.238Z,28.63
2019-02-17T23:59:27.973Z,25.00
